createdAt,value
2019-01-21T00:01:42.143Z,59.80
2019-01-21T00:04:29.458Z,59.61
2019-01-21T00:07:16.827Z,59.32
2019-01-21T00:10:05.190Z,59.03
2019-01-21T00:12:52.082Z,58.99
2019-01-21T00:15:39.745Z,58.75
2019-01-21T00:18:26.974Z,58.48
2019-01-21T00:21:14.342Z,58.49
2019-01-21T00:24:01.633Z,58.26
2019-01-21T00:26:48.964Z,58.16
2019-01-21T00:29:35.983Z,58.24
2019-01-21T00:32:23.466Z,58.08
2019-01-21T00:35:10.921Z,57.85
2019-01-21T00:37:58.422Z,57.56
2019-01-21T00:40:45.608Z,57.25
2019-01-21T00:43:32.853Z,57.04
2019-01-21T00:46:19.995Z,56.91
2019-01-21T00:49:07.250Z,56.91
2019-01-21T00:51:54.828Z,57.02
2019-01-21T00:54:42.253Z,57.78
2019-01-21T00:57:29.515Z,58.10
2019-01-21T01:00:22.524Z,57.92
2019-01-21T01:03:09.838Z,57.43
2019-01-21T01:05:57.143Z,57.02
2019-01-21T01:08:44.192Z,56.14
2019-01-21T01:11:31.513Z,56.23
2019-01-21T01:14:18.508Z,56.18
2019-01-21T01:17:05.812Z,56.09
2019-01-21T01:19:52.754Z,56.05
2019-01-21T01:22:39.815Z,56.05
2019-01-21T01:25:27.198Z,56.06
2019-01-21T01:28:14.162Z,55.98
2019-01-21T01:31:01.360Z,56.03
2019-01-21T01:33:48.965Z,55.98
2019-01-21T01:36:36.492Z,55.91
2019-01-21T01:39:23.917Z,55.81
2019-01-21T01:42:10.872Z,55.67
2019-01-21T01:44:58.564Z,55.65
2019-01-21T01:47:45.766Z,55.81
2019-01-21T01:50:32.989Z,55.88
2019-01-21T01:53:20.294Z,55.55
2019-01-21T01:56:08.226Z,55.46
2019-01-21T01:58:55.778Z,55.28
2019-01-21T02:01:43.551Z,55.13
2019-01-21T02:04:30.675Z,55.47
2019-01-21T02:07:18.255Z,55.64
2019-01-21T02:10:13.902Z,55.61
2019-01-21T02:13:00.872Z,55.84
2019-01-21T02:15:47.783Z,55.78
2019-01-21T02:18:35.007Z,55.46
2019-01-21T02:21:23.732Z,55.11
2019-01-21T02:24:12.411Z,55.07
2019-01-21T02:27:05.187Z,55.05
2019-01-21T02:29:55.074Z,55.03
2019-01-21T02:32:51.262Z,55.07
2019-01-21T02:35:41.486Z,54.98
2019-01-21T02:38:46.352Z,55.01
2019-01-21T02:41:35.362Z,54.91
2019-01-21T02:44:25.585Z,54.79
2019-01-21T02:47:19.178Z,54.60
2019-01-21T02:50:21.278Z,54.45
2019-01-21T02:53:20.529Z,55.14
2019-01-21T02:56:13.613Z,55.49
2019-01-21T02:59:12.817Z,55.19
2019-01-21T03:02:08.797Z,54.78
2019-01-21T03:05:07.878Z,54.37
2019-01-21T03:08:13.004Z,54.26
2019-01-21T03:11:22.524Z,54.28
2019-01-21T03:14:15.978Z,54.36
2019-01-21T03:17:20.951Z,54.27
2019-01-21T03:20:11.078Z,54.82
2019-01-21T03:23:16.055Z,54.48
2019-01-21T03:26:20.935Z,55.04
2019-01-21T03:29:20.258Z,54.67
2019-01-21T03:32:30.217Z,54.27
2019-01-21T03:35:23.216Z,54.25
2019-01-21T03:38:13.324Z,54.18
2019-01-21T03:41:06.588Z,54.16
2019-01-21T03:44:03.021Z,54.16
2019-01-21T03:47:02.194Z,54.42
2019-01-21T03:50:03.901Z,54.80
2019-01-21T03:53:02.944Z,55.74
2019-01-21T03:55:53.894Z,55.91
2019-01-21T03:58:49.675Z,55.58
2019-01-21T04:02:00.806Z,54.97
2019-01-21T04:05:03.004Z,54.72
2019-01-21T04:08:08.002Z,54.53
2019-01-21T04:11:03.841Z,54.49
2019-01-21T04:14:10.192Z,54.64
2019-01-21T04:17:02.893Z,54.76
2019-01-21T04:19:58.759Z,54.95
2019-01-21T04:23:11.428Z,55.26
2019-01-21T04:26:22.483Z,55.29
2019-01-21T04:29:15.669Z,55.30
2019-01-21T04:32:12.008Z,55.34
2019-01-21T04:35:14.064Z,55.47
2019-01-21T04:38:10.277Z,55.40
2019-01-21T04:41:06.857Z,55.25
2019-01-21T04:44:02.863Z,55.13
2019-01-21T04:46:53.379Z,55.19
2019-01-21T04:49:49.584Z,55.48
2019-01-21T04:53:03.323Z,55.65
2019-01-21T04:55:53.979Z,55.68
2019-01-21T04:58:55.834Z,55.55
2019-01-21T05:02:06.955Z,55.55
2019-01-21T05:05:03.138Z,55.59
2019-01-21T05:08:05.304Z,55.80
2019-01-21T05:11:30.502Z,56.08
2019-01-21T05:14:26.993Z,56.24
2019-01-21T05:17:39.711Z,56.38
2019-01-21T05:20:42.144Z,56.45
2019-01-21T05:23:35.255Z,56.55
2019-01-21T05:26:31.274Z,56.49
2019-01-21T05:29:41.241Z,56.35
2019-01-21T05:32:49.441Z,57.11
2019-01-21T05:35:48.604Z,59.05
2019-01-21T05:39:07.711Z,59.52
2019-01-21T05:42:14.486Z,58.32
2019-01-21T05:45:20.910Z,57.58
2019-01-21T05:48:30.952Z,57.39
2019-01-21T05:51:53.929Z,57.12
2019-01-21T05:54:56.445Z,56.78
2019-01-21T05:58:06.344Z,57.58
2019-01-21T06:00:56.680Z,57.37
2019-01-21T06:04:03.133Z,57.04
2019-01-21T06:07:09.810Z,57.34
2019-01-21T06:10:00.608Z,58.14
2019-01-21T06:12:54.726Z,57.96
2019-01-21T06:15:53.618Z,57.56
2019-01-21T06:18:56.958Z,57.22
2019-01-21T06:21:47.283Z,56.89
2019-01-21T06:24:46.193Z,56.62
2019-01-21T06:28:11.065Z,56.50
2019-01-21T06:31:33.649Z,56.43
2019-01-21T06:34:59.455Z,56.40
2019-01-21T06:37:50.109Z,56.52
2019-01-21T06:40:43.667Z,56.66
2019-01-21T06:43:48.973Z,56.75
2019-01-21T06:46:57.177Z,57.66
2019-01-21T06:50:02.326Z,57.56
2019-01-21T06:53:12.087Z,57.22
2019-01-21T06:56:18.691Z,56.97
2019-01-21T06:59:14.913Z,56.85
2019-01-21T07:05:24.403Z,56.86
2019-01-21T07:08:26.495Z,56.63
2019-01-21T07:11:33.709Z,56.47
2019-01-21T07:14:52.588Z,56.48
2019-01-21T07:17:59.687Z,56.57
2019-01-21T07:20:53.288Z,56.38
2019-01-21T07:24:00.087Z,56.32
2019-01-21T07:26:56.591Z,56.26
2019-01-21T07:29:49.578Z,56.60
2019-01-21T07:32:42.340Z,58.08
2019-01-21T07:35:35.748Z,58.04
2019-01-21T07:38:34.901Z,57.33
2019-01-21T07:41:40.109Z,57.20
2019-01-21T07:44:42.277Z,57.30
2019-01-21T07:47:41.790Z,57.25
2019-01-21T07:50:54.452Z,57.31
2019-01-21T07:53:56.406Z,57.85
2019-01-21T07:57:21.426Z,57.93
2019-01-21T08:00:14.050Z,57.87
2019-01-21T08:03:04.308Z,58.18
2019-01-21T08:05:57.083Z,58.68
2019-01-21T08:08:50.171Z,58.57
2019-01-21T08:12:01.396Z,58.79
2019-01-21T08:14:51.793Z,58.86
2019-01-21T08:17:47.682Z,58.70
2019-01-21T08:20:43.550Z,58.69
2019-01-21T08:23:36.880Z,59.03
2019-01-21T08:26:30.337Z,59.21
2019-01-21T08:29:26.563Z,59.23
2019-01-21T08:32:28.400Z,59.25
2019-01-21T08:35:24.450Z,60.45
2019-01-21T08:38:26.827Z,60.01
2019-01-21T08:41:20.200Z,60.99
2019-01-21T08:44:22.261Z,61.83
2019-01-21T08:47:15.374Z,62.78
2019-01-21T08:50:20.661Z,61.55
2019-01-21T08:53:29.070Z,61.28
2019-01-21T08:56:22.432Z,60.82
2019-01-21T08:59:21.083Z,60.80
2019-01-21T09:02:17.851Z,61.67
2019-01-21T09:05:24.513Z,62.22
2019-01-21T09:08:17.159Z,62.43
2019-01-21T09:11:36.185Z,63.77
2019-01-21T09:14:41.438Z,63.67
2019-01-21T09:17:31.603Z,62.31
2019-01-21T09:20:24.706Z,61.79
2019-01-21T09:23:47.779Z,61.85
2019-01-21T09:26:40.756Z,61.84
2019-01-21T09:29:46.167Z,60.74
2019-01-21T09:32:45.058Z,60.50
2019-01-21T09:35:40.942Z,60.28
2019-01-21T09:38:50.587Z,60.11
2019-01-21T09:41:46.978Z,59.94
2019-01-21T09:44:48.934Z,60.10
2019-01-21T09:47:35.078Z,59.70
2019-01-21T09:50:22.369Z,59.01
2019-01-21T09:53:09.933Z,58.67
2019-01-21T09:55:57.600Z,58.07
2019-01-21T09:58:45.446Z,57.23
2019-01-21T10:01:33.896Z,58.03
2019-01-21T10:04:24.372Z,58.43
2019-01-21T10:07:26.261Z,57.77
2019-01-21T10:10:28.640Z,56.98
2019-01-21T10:13:36.574Z,56.50
2019-01-21T10:16:38.716Z,56.27
2019-01-21T10:19:31.621Z,55.97
2019-01-21T10:22:38.114Z,56.22
2019-01-21T10:25:40.189Z,55.77
2019-01-21T10:28:53.079Z,56.00
2019-01-21T10:31:59.353Z,56.06
2019-01-21T10:35:07.401Z,55.73
2019-01-21T10:38:13.776Z,55.76
2019-01-21T10:41:03.951Z,55.49
2019-01-21T10:44:12.008Z,55.82
2019-01-21T10:47:14.150Z,55.06
2019-01-21T10:50:19.132Z,54.66
2019-01-21T10:53:18.542Z,54.24
2019-01-21T10:56:08.651Z,53.33
2019-01-21T10:59:13.497Z,52.65
2019-01-21T11:02:15.587Z,52.38
2019-01-21T11:05:11.473Z,52.14
2019-01-21T11:08:01.933Z,51.16
2019-01-21T11:10:52.405Z,52.35
2019-01-21T11:14:12.379Z,52.34
2019-01-21T11:17:13.365Z,51.85
2019-01-21T11:20:04.476Z,51.88
2019-01-21T11:23:00.707Z,51.02
2019-01-21T11:26:13.046Z,52.73
2019-01-21T11:29:15.799Z,51.74
2019-01-21T11:32:26.058Z,52.53
2019-01-21T11:35:34.780Z,52.64
2019-01-21T11:38:34.592Z,52.64
2019-01-21T11:41:43.932Z,53.25
2019-01-21T11:44:46.611Z,52.09
2019-01-21T11:48:00.970Z,52.52
2019-01-21T11:51:00.322Z,52.29
2019-01-21T11:54:05.619Z,51.54
2019-01-21T11:57:05.353Z,51.49
2019-01-21T12:00:14.151Z,50.97
2019-01-21T12:03:10.490Z,50.28
2019-01-21T12:06:00.241Z,49.64
2019-01-21T12:08:53.588Z,49.37
2019-01-21T12:11:46.896Z,49.39
2019-01-21T12:14:46.914Z,49.29
2019-01-21T12:17:43.550Z,48.56
2019-01-21T12:21:03.223Z,48.78
2019-01-21T12:24:02.123Z,47.94
2019-01-21T12:27:01.826Z,47.91
2019-01-21T12:30:08.501Z,47.81
2019-01-21T12:33:29.210Z,47.30
2019-01-21T12:36:20.007Z,47.65
2019-01-21T12:39:25.764Z,48.18
2019-01-21T12:42:22.810Z,47.87
2019-01-21T12:45:25.904Z,47.18
2019-01-21T12:48:21.927Z,47.15
2019-01-21T12:51:34.247Z,47.08
2019-01-21T12:54:27.541Z,47.74
2019-01-21T12:57:30.284Z,47.81
2019-01-21T13:00:42.280Z,47.59
2019-01-21T13:03:44.968Z,47.83
2019-01-21T13:07:03.226Z,47.70
2019-01-21T13:09:53.806Z,47.56
2019-01-21T13:13:06.965Z,47.00
2019-01-21T13:16:12.290Z,45.87
2019-01-21T13:19:28.678Z,46.51
2019-01-21T13:22:28.614Z,45.68
2019-01-21T13:25:43.634Z,45.73
2019-01-21T13:28:34.168Z,45.53
2019-01-21T13:31:31.223Z,45.77
2019-01-21T13:34:30.721Z,45.46
2019-01-21T13:37:39.656Z,44.82
2019-01-21T13:40:48.275Z,45.30
2019-01-21T13:43:50.647Z,45.17
2019-01-21T13:46:52.918Z,45.10
2019-01-21T13:49:58.886Z,45.25
2019-01-21T13:53:08.133Z,45.47
2019-01-21T13:56:04.543Z,45.31
2019-01-21T13:59:01.212Z,44.71
2019-01-21T14:01:51.887Z,45.62
2019-01-21T14:04:42.703Z,46.17
2019-01-21T14:07:57.555Z,46.12
2019-01-21T14:10:51.531Z,46.84
2019-01-21T14:13:44.513Z,46.64
2019-01-21T14:16:41.123Z,46.31
2019-01-21T14:19:37.354Z,46.87
2019-01-21T14:22:36.861Z,46.32
2019-01-21T14:25:43.027Z,46.29
2019-01-21T14:28:38.847Z,46.30
2019-01-21T14:31:38.456Z,46.22
2019-01-21T14:34:51.481Z,46.53
2019-01-21T14:37:42.180Z,46.61
2019-01-21T14:40:53.785Z,46.78
2019-01-21T14:43:47.046Z,46.52
2019-01-21T14:46:46.655Z,46.57
2019-01-21T14:49:43.184Z,47.02
2019-01-21T14:52:39.726Z,47.02
2019-01-21T14:55:35.568Z,47.04
2019-01-21T14:58:41.393Z,47.01
2019-01-21T15:01:47.277Z,47.05
2019-01-21T15:04:54.540Z,46.87
2019-01-21T15:07:45.440Z,47.01
2019-01-21T15:11:10.958Z,47.37
2019-01-21T15:14:04.349Z,47.60
2019-01-21T15:17:21.897Z,47.87
2019-01-21T15:20:12.564Z,47.98
2019-01-21T15:23:09.118Z,48.11
2019-01-21T15:26:27.130Z,48.12
2019-01-21T15:29:32.840Z,48.14
2019-01-21T15:32:36.097Z,48.19
2019-01-21T15:35:29.040Z,48.28
2019-01-21T15:38:19.428Z,48.42
2019-01-21T15:41:18.907Z,48.50
2019-01-21T15:44:12.378Z,48.30
2019-01-21T15:47:24.290Z,48.26
2019-01-21T15:50:17.457Z,48.43
2019-01-21T15:53:10.643Z,49.08
2019-01-21T15:56:19.333Z,49.65
2019-01-21T15:59:18.843Z,49.76
2019-01-21T16:02:18.262Z,50.03
2019-01-21T16:05:14.174Z,50.00
2019-01-21T16:08:06.307Z,50.00
2019-01-21T16:11:02.638Z,49.96
2019-01-21T16:13:51.465Z,49.94
2019-01-21T16:16:44.967Z,49.99
2019-01-21T16:19:33.191Z,50.00
2019-01-21T16:22:29.236Z,50.21
2019-01-21T16:25:31.577Z,50.29
2019-01-21T16:28:37.872Z,50.20
2019-01-21T16:31:28.229Z,50.28
2019-01-21T16:34:36.166Z,50.38
2019-01-21T16:37:35.468Z,50.42
2019-01-21T16:40:29.042Z,50.56
2019-01-21T16:43:16.674Z,50.76
2019-01-21T16:46:04.413Z,50.81
2019-01-21T16:48:51.717Z,51.22
2019-01-21T16:51:39.259Z,51.29
2019-01-21T16:54:26.566Z,51.13
2019-01-21T16:57:14.400Z,51.05
2019-01-21T17:00:02.239Z,51.00
2019-01-21T17:02:49.760Z,51.09
2019-01-21T17:05:37.491Z,51.09
2019-01-21T17:08:25.222Z,51.19
2019-01-21T17:11:13.053Z,51.24
2019-01-21T17:14:00.786Z,51.26
2019-01-21T17:16:48.517Z,51.23
2019-01-21T17:19:36.153Z,51.35
2019-01-21T17:22:23.775Z,51.23
2019-01-21T17:25:11.623Z,51.42
2019-01-21T17:27:59.032Z,51.85
2019-01-21T17:30:46.665Z,51.79
2019-01-21T17:33:34.302Z,51.53
2019-01-21T17:36:21.611Z,51.47
2019-01-21T17:39:09.239Z,51.54
2019-01-21T17:41:56.766Z,51.55
2019-01-21T17:44:44.498Z,51.86
2019-01-21T17:47:31.818Z,52.41
2019-01-21T17:50:19.656Z,53.80
2019-01-21T17:53:07.488Z,53.57
2019-01-21T17:55:55.680Z,53.12
2019-01-21T17:58:44.022Z,52.65
2019-01-21T18:01:31.398Z,52.39
2019-01-21T18:04:18.718Z,52.35
2019-01-21T18:07:06.755Z,52.48
2019-01-21T18:09:54.692Z,52.41
2019-01-21T18:12:42.011Z,52.33
2019-01-21T18:15:29.438Z,53.33
2019-01-21T18:18:17.637Z,54.17
2019-01-21T18:21:05.206Z,53.64
2019-01-21T18:23:52.837Z,53.04
2019-01-21T18:26:40.671Z,52.74
2019-01-21T18:29:28.715Z,52.77
2019-01-21T18:32:16.655Z,52.88
2019-01-21T18:35:05.039Z,52.97
2019-01-21T18:37:52.822Z,52.90
2019-01-21T18:40:40.151Z,53.09
2019-01-21T18:43:27.775Z,55.16
2019-01-21T18:46:15.405Z,54.68
2019-01-21T18:49:02.826Z,54.35
2019-01-21T18:51:50.624Z,53.81
2019-01-21T18:54:38.082Z,54.57
2019-01-21T18:57:25.713Z,53.76
2019-01-21T19:00:19.285Z,53.30
2019-01-21T19:03:06.906Z,53.30
2019-01-21T19:05:54.742Z,53.35
2019-01-21T19:08:42.372Z,53.53
2019-01-21T19:11:30.103Z,53.87
2019-01-21T19:14:17.322Z,53.99
2019-01-21T19:17:05.256Z,53.96
2019-01-21T19:19:52.681Z,53.87
2019-01-21T19:22:40.416Z,53.78
2019-01-21T19:25:28.044Z,53.86
2019-01-21T19:28:16.119Z,53.80
2019-01-21T19:31:04.934Z,53.69
2019-01-21T19:33:52.563Z,53.61
2019-01-21T19:36:39.892Z,53.71
2019-01-21T19:39:27.922Z,53.83
2019-01-21T19:42:15.143Z,53.71
2019-01-21T19:45:03.081Z,53.47
2019-01-21T19:47:51.115Z,53.31
2019-01-21T19:50:39.050Z,53.50
2019-01-21T19:53:26.987Z,53.40
2019-01-21T19:56:14.719Z,53.42
2019-01-21T19:59:02.243Z,53.50
2019-01-21T20:01:50.184Z,53.52
2019-01-21T20:04:37.913Z,54.68
2019-01-21T20:07:25.241Z,54.97
2019-01-21T20:10:15.836Z,54.85
2019-01-21T20:13:03.254Z,54.78
2019-01-21T20:15:51.088Z,55.26
2019-01-21T20:18:38.723Z,55.43
2019-01-21T20:21:26.450Z,56.07
2019-01-21T20:24:14.389Z,55.89
2019-01-21T20:27:02.996Z,55.27
2019-01-21T20:29:50.464Z,54.76
2019-01-21T20:32:38.195Z,55.32
2019-01-21T20:35:25.829Z,56.17
2019-01-21T20:38:13.145Z,55.87
2019-01-21T20:41:00.566Z,55.57
2019-01-21T20:43:48.509Z,55.01
2019-01-21T20:46:36.342Z,54.61
2019-01-21T20:49:23.658Z,54.46
2019-01-21T20:52:14.166Z,54.35
2019-01-21T20:55:00.468Z,54.48
2019-01-21T20:57:48.600Z,54.85
2019-01-21T21:00:36.538Z,55.13
2019-01-21T21:03:24.564Z,54.94
2019-01-21T21:06:12.399Z,55.15
2019-01-21T21:09:00.078Z,55.09
2019-01-21T21:11:48.146Z,54.86
2019-01-21T21:14:35.899Z,54.75
2019-01-21T21:17:23.732Z,54.62
2019-01-21T21:20:13.296Z,54.29
2019-01-21T21:23:01.037Z,54.55
2019-01-21T21:25:48.907Z,54.67
2019-01-21T21:28:36.708Z,54.83
2019-01-21T21:31:24.029Z,54.86
2019-01-21T21:34:12.072Z,54.86
2019-01-21T21:37:00.002Z,54.91
2019-01-21T21:39:47.435Z,55.06
2019-01-21T21:42:35.357Z,54.96
2019-01-21T21:45:23.538Z,54.92
2019-01-21T21:48:11.541Z,54.88
2019-01-21T21:50:59.372Z,54.71
2019-01-21T21:53:46.698Z,54.72
2019-01-21T21:56:34.117Z,54.74
2019-01-21T21:59:21.542Z,55.15
2019-01-21T22:02:09.374Z,55.12
2019-01-21T22:04:56.797Z,55.01
2019-01-21T22:07:44.836Z,54.93
2019-01-21T22:10:32.774Z,55.05
2019-01-21T22:13:20.505Z,55.40
2019-01-21T22:16:08.441Z,55.32
2019-01-21T22:18:56.392Z,55.16
2019-01-21T22:21:44.216Z,55.09
2019-01-21T22:24:33.179Z,55.03
2019-01-21T22:27:21.125Z,55.06
2019-01-21T22:30:15.287Z,55.21
2019-01-21T22:33:02.609Z,55.52
2019-01-21T22:35:50.760Z,55.58
2019-01-21T22:38:38.686Z,55.80
2019-01-21T22:41:26.518Z,56.01
2019-01-21T22:44:14.043Z,57.29
2019-01-21T22:47:01.214Z,58.55
2019-01-21T22:49:48.892Z,61.38
2019-01-21T22:52:41.852Z,62.59
2019-01-21T22:55:26.300Z,65.87
2019-01-21T22:58:14.132Z,63.88
2019-01-21T23:01:04.941Z,61.96
2019-01-21T23:03:52.985Z,60.84
2019-01-21T23:06:40.196Z,59.93
2019-01-21T23:09:28.028Z,59.04
2019-01-21T23:12:15.680Z,58.13
2019-01-21T23:15:03.387Z,57.64
2019-01-21T23:17:50.403Z,57.07
2019-01-21T23:20:38.131Z,56.97
2019-01-21T23:23:26.375Z,57.10
2019-01-21T23:26:14.358Z,57.57
2019-01-21T23:29:02.146Z,57.71
2019-01-21T23:31:50.283Z,57.57
2019-01-21T23:34:37.923Z,57.48
2019-01-21T23:37:25.338Z,57.51
2019-01-21T23:40:13.579Z,57.27
2019-01-21T23:43:01.424Z,57.08
2019-01-21T23:45:49.965Z,56.96
2019-01-21T23:48:37.800Z,56.78
2019-01-21T23:51:25.634Z,56.83
2019-01-21T23:54:13.215Z,56.91
2019-01-21T23:57:00.893Z,56.93
2019-01-21T23:59:49.131Z,56.74
